Time;durP1;ratioP1;P1;durP2;ratioP2;P2;SDS_P1;SDS_P2;PMS_P1;PMS_P2;Temp;Humidity;BMP_temperature;BMP_pressure;BME280_temperature;BME280_humidity;BME280_pressure;Samples;Min_cycle;Max_cycle;Signal;HPM_P1;HPM_P2
2022/09/07 00:01:20;;;;;;;2.12;1.92;;;20.20;75.20;;;;;;942810;149;27298;-75
2022/09/07 00:03:47;;;;;;;2.20;1.98;;;20.20;75.30;;;;;;944194;148;27357;-75
2022/09/07 00:06:13;;;;;;;3.12;2.12;;;20.20;75.40;;;;;;943293;149;27417;-76
2022/09/07 00:08:40;;;;;;;2.10;2.00;;;20.20;75.70;;;;;;942817;149;27450;-75
2022/09/07 00:11:07;;;;;;;2.42;2.27;;;20.20;76.00;;;;;;943211;149;27383;-75
2022/09/07 00:13:33;;;;;;;2.65;2.40;;;20.20;76.30;;;;;;943227;149;27822;-76
2022/09/07 00:16:03;;;;;;;2.30;2.10;;;20.20;77.30;;;;;;942649;149;27331;-76
2022/09/07 00:18:30;;;;;;;3.02;2.10;;;20.30;76.90;;;;;;941922;149;27373;-76
2022/09/07 00:20:59;;;;;;;2.70;2.25;;;20.30;76.90;;;;;;943620;148;27446;-76
2022/09/07 00:23:25;;;;;;;1.82;1.72;;;20.30;77.10;;;;;;943814;149;27398;-75
2022/09/07 00:25:52;;;;;;;2.98;2.00;;;20.40;77.10;;;;;;943951;149;28121;-76
2022/09/07 00:28:18;;;;;;;2.00;1.90;;;20.40;77.20;;;;;;942347;148;27409;-75
2022/09/07 00:30:45;;;;;;;2.00;1.87;;;20.40;77.20;;;;;;944355;148;27511;-75
2022/09/07 00:33:12;;;;;;;2.50;2.30;;;20.40;77.30;;;;;;945386;149;27364;-75
2022/09/07 00:35:41;;;;;;;2.70;2.00;;;20.50;77.20;;;;;;945211;148;27361;-76
2022/09/07 00:38:08;;;;;;;2.42;2.22;;;20.50;77.20;;;;;;944837;149;27455;-75
2022/09/07 00:40:34;;;;;;;3.80;2.33;;;20.50;77.40;;;;;;929239;151;27371;-76
2022/09/07 00:43:01;;;;;;;2.15;2.00;;;20.60;77.40;;;;;;944577;149;27412;-76
2022/09/07 00:45:27;;;;;;;2.12;1.98;;;20.60;77.30;;;;;;944410;149;27353;-75
2022/09/07 00:48:06;;;;;;;2.35;2.15;;;20.60;77.10;;;;;;944908;148;27348;-76
2022/09/07 00:50:33;;;;;;;3.50;2.35;;;20.60;77.10;;;;;;944919;149;27246;-75
2022/09/07 00:53:05;;;;;;;2.52;2.02;;;20.60;77.10;;;;;;942415;149;27307;-75
2022/09/07 00:55:31;;;;;;;3.05;2.27;;;20.70;77.30;;;;;;944036;148;27633;-75
2022/09/07 00:57:58;;;;;;;2.77;2.52;;;20.70;77.50;;;;;;945265;149;27459;-74
2022/09/07 01:00:25;;;;;;;2.50;2.30;;;20.70;77.80;;;;;;943862;149;27747;-74
2022/09/07 01:02:51;;;;;;;2.30;2.10;;;20.70;77.90;;;;;;944678;149;27391;-74
2022/09/07 01:05:27;;;;;;;2.20;2.00;;;20.70;78.10;;;;;;943829;149;27277;-75
2022/09/07 01:07:55;;;;;;;2.20;2.00;;;20.70;78.20;;;;;;943240;149;27261;-77
2022/09/07 01:10:22;;;;;;;2.37;2.17;;;20.80;78.20;;;;;;944349;149;27351;-75
2022/09/07 01:12:46;;;;;;;2.80;2.08;;;20.80;79.10;;;;;;943859;149;27410;-75
2022/09/07 01:15:13;;;;;;;2.70;2.50;;;20.80;78.50;;;;;;944609;149;27356;-75
2022/09/07 01:18:01;;;;;;;3.70;2.55;;;20.80;78.50;;;;;;944919;149;27445;-75
2022/09/07 01:20:30;;;;;;;4.78;2.58;;;20.80;78.70;;;;;;943785;149;27471;-76
2022/09/07 01:23:15;;;;;;;2.30;2.20;;;20.90;78.80;;;;;;944429;149;27453;-76
2022/09/07 01:26:00;;;;;;;2.50;2.12;;;20.90;78.90;;;;;;945012;149;27438;-76
2022/09/07 01:28:27;;;;;;;3.27;2.37;;;20.90;78.70;;;;;;945056;149;27365;-75
2022/09/07 01:30:56;;;;;;;2.50;2.17;;;20.90;78.50;;;;;;945108;148;27401;-76
2022/09/07 01:33:28;;;;;;;2.87;2.22;;;20.90;79.20;;;;;;947777;148;27785;-75
2022/09/07 01:35:54;;;;;;;2.42;2.22;;;21.00;79.20;;;;;;946544;148;27356;-76
2022/09/07 01:38:40;;;;;;;2.58;2.37;;;21.00;79.30;;;;;;945625;148;27359;-75
2022/09/07 01:41:09;;;;;;;2.52;2.33;;;21.00;79.80;;;;;;948188;148;27404;-75
2022/09/07 01:43:39;;;;;;;2.50;2.30;;;21.00;79.50;;;;;;946768;148;27321;-75
2022/09/07 01:46:05;;;;;;;2.50;2.30;;;21.00;79.70;;;;;;947373;148;27720;-75
2022/09/07 01:48:32;;;;;;;3.52;2.30;;;21.00;79.50;;;;;;947509;148;27353;-75
2022/09/07 01:51:01;;;;;;;5.15;2.58;;;21.00;79.50;;;;;;947529;148;27365;-75
2022/09/07 01:53:30;;;;;;;3.77;2.98;;;21.00;79.40;;;;;;947869;148;28513;-75
2022/09/07 01:56:06;;;;;;;4.08;2.20;;;21.00;79.50;;;;;;947538;148;27371;-75
2022/09/07 01:58:44;;;;;;;2.77;2.58;;;21.00;79.70;;;;;;947109;148;27334;-75
2022/09/07 02:01:19;;;;;;;2.67;2.30;;;21.00;80.00;;;;;;947937;148;27342;-75
2022/09/07 02:03:46;;;;;;;3.85;2.65;;;21.00;80.20;;;;;;937592;151;27362;-75
2022/09/07 02:06:21;;;;;;;4.67;3.00;;;21.00;80.30;;;;;;947431;148;27880;-75
2022/09/07 02:08:51;;;;;;;3.30;3.00;;;21.00;80.90;;;;;;947264;148;27324;-76
2022/09/07 02:11:20;;;;;;;3.05;2.85;;;21.00;81.00;;;;;;947211;148;27350;-76
2022/09/07 02:13:59;;;;;;;3.65;2.92;;;21.00;81.50;;;;;;947754;148;27248;-74
2022/09/07 02:16:28;;;;;;;3.37;3.08;;;21.00;81.80;;;;;;932233;150;27394;-74
2022/09/07 02:19:00;;;;;;;3.50;2.52;;;21.00;82.10;;;;;;932056;151;27321;-75
2022/09/07 02:21:36;;;;;;;3.05;2.55;;;21.10;82.60;;;;;;946976;148;27435;-74
2022/09/07 02:24:05;;;;;;;2.95;2.50;;;21.10;82.90;;;;;;946635;148;27294;-74
2022/09/07 02:26:32;;;;;;;2.60;2.33;;;21.10;82.70;;;;;;931332;151;27284;-74
2022/09/07 02:28:58;;;;;;;2.87;2.58;;;21.10;82.70;;;;;;948363;148;27769;-73
2022/09/07 02:31:25;;;;;;;4.05;2.47;;;21.10;82.60;;;;;;945425;148;27409;-74
2022/09/07 02:33:52;;;;;;;4.60;2.77;;;21.10;82.60;;;;;;937344;151;27510;-73
2022/09/07 02:36:18;;;;;;;3.17;2.90;;;21.10;82.10;;;;;;928085;150;28397;-73
2022/09/07 02:38:45;;;;;;;2.92;2.60;;;21.10;82.00;;;;;;925916;152;27321;-73
2022/09/07 02:41:29;;;;;;;4.33;2.52;;;21.10;82.30;;;;;;943572;150;27346;-74
2022/09/07 02:43:56;;;;;;;2.60;2.25;;;21.10;82.40;;;;;;926568;150;27455;-75
2022/09/07 02:46:23;;;;;;;3.15;2.85;;;21.10;82.20;;;;;;941065;149;27362;-73
2022/09/07 02:49:08;;;;;;;3.75;2.77;;;21.10;82.00;;;;;;925410;150;28370;-73
2022/09/07 02:51:41;;;;;;;3.47;2.65;;;21.10;82.60;;;;;;938757;150;28371;-73
2022/09/07 02:54:19;;;;;;;2.75;2.55;;;21.10;82.80;;;;;;937741;151;27327;-74
2022/09/07 02:57:07;;;;;;;2.55;2.42;;;21.00;83.20;;;;;;939776;151;27907;-73
2022/09/07 02:59:55;;;;;;;2.92;2.55;;;21.00;83.40;;;;;;937990;151;27322;-74
2022/09/07 03:02:30;;;;;;;2.20;2.00;;;21.00;84.00;;;;;;938343;150;27317;-74
2022/09/07 03:05:15;;;;;;;2.55;2.20;;;21.00;83.90;;;;;;936301;150;27443;-74
2022/09/07 03:07:44;;;;;;;2.72;2.45;;;21.00;84.10;;;;;;940573;150;27376;-74
2022/09/07 03:10:10;;;;;;;4.80;2.40;;;20.90;85.00;;;;;;926514;150;27276;-74
2022/09/07 03:12:46;;;;;;;3.55;2.45;;;20.90;85.10;;;;;;926108;150;27388;-74
2022/09/07 03:15:12;;;;;;;3.67;2.12;;;20.90;85.60;;;;;;917455;153;27486;-74
2022/09/07 03:17:39;;;;;;;2.47;2.27;;;20.90;86.20;;;;;;941185;151;27401;-73
2022/09/07 03:20:05;;;;;;;3.87;2.17;;;20.80;86.70;;;;;;938814;151;27333;-74
2022/09/07 03:22:33;;;;;;;2.33;2.12;;;20.80;87.60;;;;;;939667;151;27356;-73
2022/09/07 03:24:58;;;;;;;3.35;2.42;;;20.80;88.90;;;;;;941353;150;27413;-74
2022/09/07 03:27:25;;;;;;;2.67;2.20;;;20.70;89.50;;;;;;939582;151;27379;-74
2022/09/07 03:29:51;;;;;;;2.45;2.27;;;20.70;89.50;;;;;;937937;151;27395;-74
2022/09/07 03:32:18;;;;;;;4.25;2.58;;;20.70;89.50;;;;;;942316;148;27469;-73
2022/09/07 03:34:47;;;;;;;2.40;2.20;;;20.70;90.20;;;;;;942584;149;27305;-74
2022/09/07 03:37:11;;;;;;;4.40;3.12;;;20.60;90.30;;;;;;942242;148;27395;-74
2022/09/07 03:39:38;;;;;;;3.83;2.67;;;20.50;90.50;;;;;;942474;149;27480;-76
2022/09/07 03:42:04;;;;;;;3.47;3.17;;;20.50;90.60;;;;;;943421;148;28448;-74
2022/09/07 03:44:31;;;;;;;3.02;2.83;;;20.40;90.90;;;;;;943688;148;27299;-74
2022/09/07 03:46:58;;;;;;;3.20;2.90;;;20.30;90.90;;;;;;943150;148;27402;-74
2022/09/07 03:49:24;;;;;;;3.12;2.87;;;20.30;91.20;;;;;;942732;149;27322;-73
2022/09/07 03:51:51;;;;;;;3.30;3.02;;;20.20;91.40;;;;;;943054;148;27476;-73
2022/09/07 03:54:17;;;;;;;3.80;3.25;;;20.10;91.70;;;;;;942470;148;27452;-72
2022/09/07 03:56:44;;;;;;;4.17;3.15;;;20.10;91.90;;;;;;942791;149;27306;-73
2022/09/07 03:59:11;;;;;;;4.08;3.33;;;20.00;92.30;;;;;;942967;148;27350;-73
2022/09/07 04:01:38;;;;;;;3.55;3.05;;;19.90;92.40;;;;;;942687;149;27329;-73
2022/09/07 04:04:04;;;;;;;3.40;3.17;;;19.90;92.80;;;;;;942486;149;27333;-75
2022/09/07 04:06:30;;;;;;;3.30;2.98;;;19.90;93.00;;;;;;942065;149;27463;-74
2022/09/07 04:08:57;;;;;;;4.28;3.00;;;19.90;93.40;;;;;;943519;149;27333;-74
2022/09/07 04:11:24;;;;;;;3.72;3.02;;;19.90;93.70;;;;;;941445;149;27338;-74
2022/09/07 04:13:50;;;;;;;3.70;2.80;;;19.90;93.90;;;;;;942879;149;27335;-74
2022/09/07 04:16:23;;;;;;;3.67;3.05;;;19.90;94.10;;;;;;943447;148;27868;-75
2022/09/07 04:18:49;;;;;;;5.60;3.90;;;19.90;94.30;;;;;;943169;149;27428;-74
2022/09/07 04:21:16;;;;;;;3.40;3.10;;;19.90;94.50;;;;;;944415;149;27348;-74
2022/09/07 04:23:42;;;;;;;6.87;3.37;;;19.90;94.60;;;;;;943206;148;27395;-74
2022/09/07 04:26:21;;;;;;;3.10;2.80;;;19.90;94.70;;;;;;943115;149;27326;-76
2022/09/07 04:28:48;;;;;;;4.50;3.40;;;19.90;94.80;;;;;;942341;149;27402;-74
2022/09/07 04:31:14;;;;;;;3.47;3.10;;;19.90;95.10;;;;;;943651;149;27366;-75
2022/09/07 04:33:43;;;;;;;3.15;2.92;;;19.90;94.90;;;;;;942860;149;27418;-74
2022/09/07 04:36:10;;;;;;;3.87;3.52;;;19.90;95.00;;;;;;942797;149;27293;-74
2022/09/07 04:38:38;;;;;;;3.02;2.83;;;19.90;95.10;;;;;;937907;148;27323;-75
2022/09/07 04:41:05;;;;;;;5.47;3.25;;;19.90;95.10;;;;;;943979;148;27419;-75
2022/09/07 04:43:30;;;;;;;5.37;3.60;;;19.90;95.10;;;;;;943370;148;27340;-74
2022/09/07 04:45:56;;;;;;;3.42;3.10;;;19.90;95.10;;;;;;942366;148;27430;-75
2022/09/07 04:48:23;;;;;;;4.50;3.20;;;19.80;95.10;;;;;;943065;148;27309;-73
2022/09/07 04:50:50;;;;;;;4.85;3.45;;;19.80;95.10;;;;;;943152;148;27382;-74
2022/09/07 04:53:16;;;;;;;4.87;3.10;;;19.80;95.60;;;;;;942980;148;27314;-75
2022/09/07 04:55:43;;;;;;;5.08;3.37;;;19.70;95.40;;;;;;944365;148;27360;-76
2022/09/07 04:58:09;;;;;;;3.72;3.02;;;19.70;95.50;;;;;;943744;148;27447;-74
2022/09/07 05:00:38;;;;;;;4.72;3.75;;;19.70;95.70;;;;;;943116;148;27393;-74
2022/09/07 05:03:02;;;;;;;3.83;3.52;;;19.60;96.00;;;;;;943805;148;27818;-74
2022/09/07 05:05:29;;;;;;;3.85;3.55;;;19.60;96.10;;;;;;943932;148;27438;-76
2022/09/07 05:07:56;;;;;;;3.67;3.33;;;19.60;96.30;;;;;;943745;148;27329;-75
2022/09/07 05:10:22;;;;;;;4.72;3.30;;;19.60;96.40;;;;;;943229;148;27353;-74
2022/09/07 05:12:49;;;;;;;4.25;3.70;;;19.60;96.50;;;;;;943865;148;27827;-76
2022/09/07 05:15:15;;;;;;;3.58;3.27;;;19.60;96.70;;;;;;942703;148;27292;-75
2022/09/07 05:17:42;;;;;;;3.95;3.60;;;19.60;96.80;;;;;;943901;148;27302;-76
2022/09/07 05:20:09;;;;;;;4.12;3.72;;;19.60;96.90;;;;;;944030;148;27430;-77
2022/09/07 05:22:39;;;;;;;4.60;4.05;;;19.60;97.10;;;;;;944280;148;27470;-76
2022/09/07 05:25:02;;;;;;;4.20;3.80;;;19.60;97.20;;;;;;943341;148;27359;-75
2022/09/07 05:27:28;;;;;;;4.08;3.70;;;19.60;97.30;;;;;;942731;148;27447;-74
2022/09/07 05:29:55;;;;;;;3.58;3.37;;;19.70;97.50;;;;;;943286;148;27244;-75
2022/09/07 05:32:22;;;;;;;5.20;3.85;;;19.70;97.60;;;;;;944116;148;27320;-74
2022/09/07 05:34:49;;;;;;;4.42;3.92;;;19.70;97.90;;;;;;933809;149;27491;-77
2022/09/07 05:37:15;;;;;;;3.98;3.67;;;19.80;98.10;;;;;;928183;151;27422;-73
2022/09/07 05:39:41;;;;;;;4.10;3.77;;;19.90;98.80;;;;;;929690;149;27263;-73
2022/09/07 05:42:08;;;;;;;4.10;3.70;;;20.00;99.50;;;;;;930823;150;27395;-75
2022/09/07 05:44:35;;;;;;;4.78;3.70;;;20.10;99.90;;;;;;932139;151;27442;-75
2022/09/07 05:47:01;;;;;;;3.12;2.92;;;20.40;99.90;;;;;;932204;151;27291;-76
2022/09/07 05:49:28;;;;;;;3.72;3.42;;;20.70;99.90;;;;;;930571;151;27496;-73
2022/09/07 05:51:54;;;;;;;3.95;3.55;;;21.10;99.90;;;;;;928609;151;27480;-73
2022/09/07 05:54:21;;;;;;;3.87;3.58;;;21.60;99.90;;;;;;930676;151;27306;-73
2022/09/07 05:56:47;;;;;;;3.22;2.72;;;22.10;99.90;;;;;;927535;151;27349;-74
2022/09/07 05:59:14;;;;;;;3.02;2.83;;;22.60;99.90;;;;;;930355;151;27392;-75
2022/09/07 06:01:41;;;;;;;3.37;2.92;;;23.10;99.90;;;;;;931051;151;27406;-74
2022/09/07 06:04:07;;;;;;;3.45;3.00;;;23.60;97.70;;;;;;930115;151;27427;-74
2022/09/07 06:06:34;;;;;;;3.27;2.98;;;23.90;94.90;;;;;;929509;151;27310;-74
2022/09/07 06:09:01;;;;;;;3.98;3.02;;;24.10;92.60;;;;;;929795;151;27458;-75
2022/09/07 06:11:27;;;;;;;3.92;3.17;;;24.20;91.00;;;;;;929168;151;27410;-76
2022/09/07 06:13:54;;;;;;;3.33;3.02;;;24.20;89.60;;;;;;931708;151;27388;-76
2022/09/07 06:16:20;;;;;;;4.12;3.20;;;24.10;87.90;;;;;;932494;151;27450;-74
2022/09/07 06:18:47;;;;;;;3.12;2.87;;;24.00;87.00;;;;;;929167;151;27779;-75
2022/09/07 06:21:19;;;;;;;3.60;2.90;;;23.90;86.50;;;;;;929924;151;27316;-75
2022/09/07 06:23:46;;;;;;;7.12;3.05;;;23.80;88.00;;;;;;931490;151;27313;-75
2022/09/07 06:26:12;;;;;;;2.67;2.47;;;23.80;91.10;;;;;;931117;151;27390;-76
2022/09/07 06:28:39;;;;;;;3.35;2.98;;;24.00;93.30;;;;;;929457;151;27441;-75
2022/09/07 06:31:06;;;;;;;3.17;2.65;;;24.30;94.40;;;;;;930236;151;27356;-76
2022/09/07 06:33:32;;;;;;;3.27;2.80;;;24.80;95.10;;;;;;927991;151;27464;-78
2022/09/07 06:35:59;;;;;;;2.58;2.37;;;25.40;95.60;;;;;;931401;151;27842;-75
2022/09/07 06:38:25;;;;;;;2.58;2.37;;;26.10;95.00;;;;;;929606;151;27284;-78
2022/09/07 06:40:52;;;;;;;2.50;2.40;;;26.80;94.40;;;;;;928081;151;27485;-77
2022/09/07 06:43:18;;;;;;;3.15;2.40;;;27.60;92.90;;;;;;924427;151;27494;-75
2022/09/07 06:45:45;;;;;;;3.17;2.33;;;28.40;90.90;;;;;;929155;151;27497;-76
2022/09/07 06:48:11;;;;;;;2.47;2.27;;;29.10;87.70;;;;;;927997;151;27326;-76
2022/09/07 06:50:38;;;;;;;3.20;2.50;;;29.80;83.20;;;;;;933844;151;28059;-78
2022/09/07 06:53:05;;;;;;;2.58;2.35;;;30.50;80.10;;;;;;929846;151;27431;-74
2022/09/07 06:55:31;;;;;;;2.70;2.50;;;31.20;77.10;;;;;;929048;151;27289;-74
2022/09/07 06:57:58;;;;;;;2.47;2.27;;;31.80;75.00;;;;;;930447;150;27423;-74
2022/09/07 07:00:24;;;;;;;2.27;2.08;;;32.40;72.50;;;;;;927936;151;27433;-75
2022/09/07 07:02:51;;;;;;;3.30;2.70;;;33.00;70.50;;;;;;930740;151;27352;-77
2022/09/07 07:05:18;;;;;;;2.00;1.90;;;33.60;67.90;;;;;;931023;151;27465;-75
2022/09/07 07:07:44;;;;;;;4.50;2.37;;;34.20;66.40;;;;;;928547;151;27508;-75
2022/09/07 07:10:11;;;;;;;2.58;2.15;;;34.70;65.00;;;;;;927331;151;26225;-75
2022/09/07 07:12:37;;;;;;;3.37;2.08;;;35.30;63.50;;;;;;930862;151;26369;-75
2022/09/07 07:15:04;;;;;;;4.05;2.12;;;35.80;61.90;;;;;;928570;151;26308;-76
2022/09/07 07:17:30;;;;;;;2.40;2.20;;;36.30;59.80;;;;;;931381;151;26285;-77
2022/09/07 07:19:57;;;;;;;3.47;3.10;;;36.70;58.70;;;;;;927478;151;26280;-75
2022/09/07 07:22:24;;;;;;;3.72;2.33;;;37.10;57.70;;;;;;928507;151;26193;-75
2022/09/07 07:24:50;;;;;;;2.55;2.10;;;37.50;57.30;;;;;;930672;151;26342;-75
2022/09/07 07:27:17;;;;;;;5.60;2.22;;;37.90;56.80;;;;;;928581;151;26265;-75
2022/09/07 07:29:44;;;;;;;3.00;2.08;;;38.30;55.70;;;;;;931119;151;27371;-75
2022/09/07 07:32:10;;;;;;;2.40;2.08;;;38.70;54.90;;;;;;928924;151;28748;-75
2022/09/07 07:34:37;;;;;;;2.30;2.00;;;39.00;54.00;;;;;;934549;149;26249;-75
2022/09/07 07:37:03;;;;;;;2.55;2.00;;;39.40;52.80;;;;;;944769;149;27307;-75
2022/09/07 07:39:30;;;;;;;2.10;1.90;;;39.70;51.90;;;;;;944895;148;26326;-75
2022/09/07 07:41:56;;;;;;;2.50;2.30;;;40.00;51.00;;;;;;945139;149;26411;-76
2022/09/07 07:44:23;;;;;;;2.95;2.45;;;40.10;50.50;;;;;;944652;149;26272;-77
2022/09/07 07:46:50;;;;;;;3.40;1.70;;;40.30;49.80;;;;;;944948;149;27325;-77
2022/09/07 07:49:16;;;;;;;2.40;2.20;;;40.40;49.40;;;;;;944888;149;26353;-76
2022/09/07 07:51:43;;;;;;;3.25;1.90;;;40.70;49.30;;;;;;944272;149;26164;-76
2022/09/07 07:54:09;;;;;;;2.72;2.00;;;40.90;48.80;;;;;;945282;148;26217;-77
2022/09/07 07:56:36;;;;;;;2.22;1.98;;;41.20;48.60;;;;;;945049;148;27870;-76
2022/09/07 07:59:03;;;;;;;2.45;1.80;;;41.50;48.00;;;;;;945252;148;28304;-76
2022/09/07 08:01:29;;;;;;;2.20;1.95;;;41.80;47.40;;;;;;944854;149;26262;-78
2022/09/07 08:03:56;;;;;;;4.20;2.00;;;42.00;46.70;;;;;;945100;149;26316;-77
2022/09/07 08:06:22;;;;;;;2.60;2.10;;;42.30;46.20;;;;;;945012;149;26326;-77
2022/09/07 08:08:49;;;;;;;2.37;1.67;;;42.60;45.90;;;;;;944693;149;26374;-78
2022/09/07 08:11:16;;;;;;;1.75;1.62;;;42.80;45.50;;;;;;944778;149;26255;-77
2022/09/07 08:13:42;;;;;;;3.20;2.22;;;43.10;45.30;;;;;;944928;149;26301;-77
2022/09/07 08:16:09;;;;;;;2.45;2.00;;;43.20;44.70;;;;;;944766;149;26218;-78
2022/09/07 08:18:35;;;;;;;2.45;1.60;;;43.20;43.10;;;;;;927853;152;26308;-76
2022/09/07 08:21:02;;;;;;;2.45;1.72;;;43.00;42.30;;;;;;927774;152;26279;-79
2022/09/07 08:23:28;;;;;;;1.87;1.72;;;42.60;41.70;;;;;;928119;152;26280;-76
2022/09/07 08:25:57;;;;;;;2.85;1.90;;;42.20;41.70;;;;;;944364;149;26317;-77
2022/09/07 08:28:22;;;;;;;2.12;1.70;;;41.80;42.30;;;;;;939357;150;26237;-77
2022/09/07 08:30:48;;;;;;;2.40;1.98;;;41.50;43.10;;;;;;924907;153;26270;-77
2022/09/07 08:33:15;;;;;;;2.72;2.10;;;41.30;43.20;;;;;;937224;150;26221;-78
2022/09/07 08:35:41;;;;;;;2.22;1.70;;;41.30;43.20;;;;;;928100;150;26324;-78
2022/09/07 08:38:08;;;;;;;1.98;1.57;;;41.30;43.30;;;;;;943785;148;26253;-77
2022/09/07 08:40:34;;;;;;;2.05;1.50;;;41.50;43.50;;;;;;943847;148;26246;-75
2022/09/07 08:43:13;;;;;;;1.65;1.55;;;41.70;43.30;;;;;;943095;149;26261;-78
2022/09/07 08:45:40;;;;;;;4.40;1.52;;;41.90;43.00;;;;;;942349;149;26320;-78
2022/09/07 08:48:06;;;;;;;2.65;1.77;;;42.30;43.00;;;;;;942558;149;27862;-76
2022/09/07 08:50:38;;;;;;;4.10;1.67;;;42.50;42.20;;;;;;943200;148;26292;-76
2022/09/07 08:53:08;;;;;;;2.83;1.80;;;42.80;41.70;;;;;;942706;149;26275;-77
2022/09/07 08:55:40;;;;;;;2.72;1.70;;;42.90;41.00;;;;;;942819;149;26335;-79
2022/09/07 08:58:12;;;;;;;2.87;1.70;;;42.90;40.80;;;;;;943219;149;26280;-77
2022/09/07 09:00:39;;;;;;;2.77;1.45;;;42.90;40.40;;;;;;942779;149;26209;-77
2022/09/07 09:03:07;;;;;;;1.62;1.45;;;42.70;40.20;;;;;;943598;149;26202;-76
2022/09/07 09:05:44;;;;;;;2.92;1.60;;;42.50;40.00;;;;;;941608;148;26337;-77
2022/09/07 09:08:10;;;;;;;3.00;1.75;;;42.50;40.00;;;;;;943012;149;26281;-77
2022/09/07 09:10:45;;;;;;;2.15;1.52;;;42.40;40.10;;;;;;942474;149;26218;-76
2022/09/07 09:13:18;;;;;;;3.22;1.80;;;42.50;40.60;;;;;;924779;149;26352;-76
2022/09/07 09:15:53;;;;;;;1.82;1.40;;;42.50;40.60;;;;;;942632;149;26265;-76
2022/09/07 09:18:41;;;;;;;2.22;1.40;;;42.70;40.40;;;;;;942823;149;26273;-77
2022/09/07 09:21:13;;;;;;;1.85;1.40;;;42.70;39.60;;;;;;942959;148;26210;-76
2022/09/07 09:23:40;;;;;;;1.87;1.70;;;42.50;39.00;;;;;;941763;148;26229;-76
2022/09/07 09:26:09;;;;;;;2.60;1.70;;;42.20;38.70;;;;;;942593;149;26586;-77
2022/09/07 09:28:36;;;;;;;3.00;1.70;;;41.90;39.20;;;;;;942372;148;26369;-76
2022/09/07 09:31:02;;;;;;;2.10;1.67;;;41.80;39.60;;;;;;944333;148;26371;-77
2022/09/07 09:33:29;;;;;;;2.70;1.60;;;41.60;39.90;;;;;;943335;149;26272;-76
2022/09/07 09:35:55;;;;;;;3.17;1.80;;;41.60;39.80;;;;;;943633;149;26350;-77
2022/09/07 09:38:34;;;;;;;1.90;1.80;;;41.40;39.30;;;;;;944997;149;26249;-77
2022/09/07 09:41:10;;;;;;;1.90;1.60;;;41.30;39.60;;;;;;945393;149;26355;-77
2022/09/07 09:43:39;;;;;;;3.47;2.02;;;41.20;39.90;;;;;;944849;149;26368;-76
2022/09/07 09:46:06;;;;;;;2.40;1.20;;;41.20;40.20;;;;;;943575;149;26338;-76
2022/09/07 09:48:32;;;;;;;1.55;1.45;;;41.20;40.50;;;;;;942309;149;26217;-76
2022/09/07 09:50:59;;;;;;;2.00;1.70;;;41.30;40.00;;;;;;944593;149;26274;-76
2022/09/07 09:53:28;;;;;;;3.50;1.62;;;41.30;39.80;;;;;;944279;149;26261;-79
2022/09/07 09:55:55;;;;;;;3.37;1.77;;;41.20;39.60;;;;;;944317;149;27920;-76
2022/09/07 09:58:27;;;;;;;2.65;1.85;;;41.10;39.20;;;;;;944552;149;26221;-79
2022/09/07 10:00:57;;;;;;;2.72;1.85;;;40.90;39.00;;;;;;944460;149;26292;-76
2022/09/07 10:03:23;;;;;;;2.52;1.55;;;40.60;39.10;;;;;;944402;149;26269;-76
2022/09/07 10:05:50;;;;;;;4.72;1.80;;;40.30;39.20;;;;;;928145;152;26271;-76
2022/09/07 10:08:19;;;;;;;2.55;1.90;;;40.10;39.30;;;;;;944571;149;26278;-76
2022/09/07 10:11:14;;;;;;;4.05;1.90;;;39.80;39.30;;;;;;944392;149;26225;-76
2022/09/07 10:13:36;;;;;;;4.28;1.70;;;39.50;39.90;;;;;;943315;149;27405;-77
2022/09/07 10:16:05;;;;;;;2.10;1.70;;;39.20;39.70;;;;;;942573;149;26823;-79
2022/09/07 10:18:41;;;;;;;4.05;1.77;;;39.00;39.60;;;;;;944349;149;28594;-76
2022/09/07 10:21:26;;;;;;;3.12;1.92;;;38.70;39.70;;;;;;942882;149;27739;-78
2022/09/07 10:24:04;;;;;;;2.15;1.70;;;38.40;39.90;;;;;;944019;149;26254;-76
2022/09/07 10:26:31;;;;;;;2.47;1.82;;;38.10;40.10;;;;;;944888;149;27270;-76
2022/09/07 10:29:06;;;;;;;3.47;1.90;;;37.70;40.30;;;;;;943846;149;27383;-79
2022/09/07 10:31:33;;;;;;;1.87;1.47;;;37.40;40.50;;;;;;927361;151;27387;-78
2022/09/07 10:34:05;;;;;;;3.67;1.65;;;37.10;40.80;;;;;;929112;151;27377;-78
2022/09/07 10:36:41;;;;;;;2.40;1.72;;;36.80;41.10;;;;;;928719;151;27366;-76
2022/09/07 10:39:07;;;;;;;2.02;1.65;;;36.60;41.60;;;;;;945677;149;27313;-79
2022/09/07 10:41:43;;;;;;;5.37;1.90;;;36.40;41.60;;;;;;943754;148;27427;-76
2022/09/07 10:44:09;;;;;;;2.20;1.77;;;36.20;42.00;;;;;;943767;149;27402;-78
2022/09/07 10:46:57;;;;;;;2.83;1.72;;;36.10;42.30;;;;;;942700;149;27347;-76
2022/09/07 10:49:24;;;;;;;2.65;1.60;;;36.00;42.30;;;;;;944102;149;27996;-77
2022/09/07 10:51:59;;;;;;;2.75;1.52;;;35.90;42.40;;;;;;944399;149;27356;-78
2022/09/07 10:54:43;;;;;;;1.80;1.52;;;35.80;42.70;;;;;;944397;148;27452;-76
2022/09/07 10:57:28;;;;;;;3.15;1.57;;;35.70;42.40;;;;;;944176;149;27461;-76
2022/09/07 11:00:12;;;;;;;1.32;1.22;;;35.60;42.60;;;;;;927643;152;27930;-77
2022/09/07 11:03:09;;;;;;;3.17;1.40;;;35.50;42.80;;;;;;927921;152;27450;-77
2022/09/07 11:05:57;;;;;;;2.08;1.47;;;35.40;42.60;;;;;;928376;152;27430;-79
2022/09/07 11:08:42;;;;;;;2.30;1.25;;;35.30;42.40;;;;;;926497;152;27795;-79
2022/09/07 11:11:15;;;;;;;1.52;1.12;;;35.20;42.50;;;;;;921201;151;28164;-79
2022/09/07 11:13:41;;;;;;;3.27;1.67;;;35.00;42.70;;;;;;942998;149;27370;-79
2022/09/07 11:16:10;;;;;;;1.60;1.30;;;34.80;43.00;;;;;;944053;149;27279;-79
2022/09/07 11:18:37;;;;;;;3.70;1.70;;;34.70;43.20;;;;;;944449;149;27309;-78
2022/09/07 11:21:04;;;;;;;1.92;1.32;;;34.60;43.40;;;;;;943117;148;27780;-78
2022/09/07 11:23:42;;;;;;;2.10;1.40;;;34.50;43.50;;;;;;943962;149;27443;-78
2022/09/07 11:26:29;;;;;;;1.87;1.27;;;34.30;43.50;;;;;;920333;151;27446;-78
2022/09/07 11:29:04;;;;;;;1.98;1.35;;;34.20;43.10;;;;;;877578;159;27407;-79
2022/09/07 11:31:34;;;;;;;1.40;1.27;;;34.00;43.90;;;;;;905793;152;27362;-79
2022/09/07 11:34:13;;;;;;;2.25;1.27;;;33.80;44.20;;;;;;928013;152;27307;-79
2022/09/07 11:36:44;;;;;;;1.80;0.90;;;33.70;44.40;;;;;;938228;148;27274;-79
2022/09/07 11:39:20;;;;;;;2.65;1.42;;;33.60;44.50;;;;;;942749;148;27797;-79
2022/09/07 11:41:56;;;;;;;1.75;1.27;;;33.60;45.00;;;;;;942933;148;27401;-79
2022/09/07 11:44:41;;;;;;;1.87;1.12;;;33.60;44.80;;;;;;943513;148;27439;-79
2022/09/07 11:47:07;;;;;;;1.90;1.30;;;33.50;44.70;;;;;;942387;148;27474;-78
2022/09/07 11:49:34;;;;;;;2.65;1.17;;;33.50;44.80;;;;;;934735;149;27295;-79
2022/09/07 11:52:04;;;;;;;1.30;1.12;;;33.40;44.70;;;;;;944432;148;27315;-79
2022/09/07 11:54:47;;;;;;;1.85;1.25;;;33.40;45.00;;;;;;942575;148;27429;-79
2022/09/07 11:57:15;;;;;;;1.52;1.35;;;33.40;45.00;;;;;;943550;148;27341;-79
2022/09/07 11:59:44;;;;;;;1.55;1.20;;;33.30;45.10;;;;;;942907;148;27388;-79
2022/09/07 12:02:35;;;;;;;1.07;0.98;;;33.30;45.20;;;;;;942995;148;27308;-78
2022/09/07 12:05:20;;;;;;;1.22;1.05;;;33.30;45.20;;;;;;943871;148;27344;-79
2022/09/07 12:07:55;;;;;;;1.30;1.20;;;33.30;45.20;;;;;;943095;148;27256;-79
2022/09/07 12:10:30;;;;;;;1.47;1.05;;;33.30;45.30;;;;;;942272;148;27255;-79
2022/09/07 12:13:31;;;;;;;2.50;1.02;;;33.40;45.50;;;;;;943348;148;27770;-78
2022/09/07 12:16:07;;;;;;;2.02;1.20;;;33.40;45.70;;;;;;943766;148;27384;-79
2022/09/07 12:18:40;;;;;;;2.98;1.52;;;33.50;45.70;;;;;;942348;148;27335;-79
2022/09/07 12:21:06;;;;;;;2.80;1.55;;;33.50;45.70;;;;;;925532;150;27338;-79
2022/09/07 12:23:33;;;;;;;3.25;1.12;;;33.60;45.80;;;;;;939257;148;27286;-79
2022/09/07 12:26:33;;;;;;;1.85;1.20;;;33.70;45.30;;;;;;943676;148;27331;-79
2022/09/07 12:28:59;;;;;;;2.58;1.40;;;33.70;45.20;;;;;;942840;148;27329;-79
2022/09/07 12:31:38;;;;;;;1.40;1.07;;;33.70;44.70;;;;;;943595;148;27336;-79
2022/09/07 12:34:32;;;;;;;2.45;1.30;;;33.70;44.60;;;;;;942045;148;27375;-79
2022/09/07 12:37:01;;;;;;;1.37;0.90;;;33.70;44.60;;;;;;919703;150;27383;-79
2022/09/07 12:39:28;;;;;;;1.77;1.25;;;33.70;44.50;;;;;;942035;148;27411;-79
2022/09/07 12:42:09;;;;;;;2.40;1.20;;;33.60;44.50;;;;;;947358;148;27371;-79
2022/09/07 12:44:36;;;;;;;2.12;0.90;;;33.60;44.40;;;;;;944304;148;27343;-79
2022/09/07 12:47:11;;;;;;;2.20;1.12;;;33.50;44.20;;;;;;923623;151;27505;-79
2022/09/07 12:49:46;;;;;;;3.30;1.30;;;33.40;44.20;;;;;;942578;151;27740;-78
2022/09/07 12:52:28;;;;;;;2.17;1.10;;;33.40;43.90;;;;;;947085;148;27398;-79
2022/09/07 12:54:57;;;;;;;1.27;0.98;;;33.20;43.60;;;;;;947707;148;27374;-80
2022/09/07 12:57:42;;;;;;;1.47;1.15;;;33.20;43.80;;;;;;947041;148;27752;-80
2022/09/07 13:00:11;;;;;;;1.17;1.07;;;33.00;43.50;;;;;;948071;148;27435;-79
2022/09/07 13:02:49;;;;;;;0.98;0.82;;;33.00;43.50;;;;;;947167;148;27338;-79